Terminal Aerodrome Forecast
Issued by NWS Raleigh/Durham, NC

Home | Current Version | Previous Version | Text Only | Print | Product List | Glossary On
Versions: 1 2 3 4 5 6 7 8 9 10 11 12 13 14 15
000
FTUS42 KRAH 011735
TAFRDU
TAF
KRDU 011735Z 0118/0218 22017G29KT P6SM SCT045 BKN200
     FM012200 22015G27KT P6SM BKN050
     FM020200 22013G23KT P6SM VCTS OVC040CB
      TEMPO 0202/0204 VRB20G38KT 3SM -TSRA BR BKN018CB
     FM020700 27011G21KT P6SM OVC070
     FM021000 30010G18KT P6SM SCT250=

USA.gov is the U.S. government's official web portal to all federal, state and local government web resources and services.